sensor_id;sensor_type;location;lat;lon;timestamp;pressure;altitude;pressure_sealevel;temperature;humidity
11605;BME280;5858;43.076;25.626;2023-03-23T00:02:23;99299.31;;;10.28;100.00
11605;BME280;5858;43.076;25.626;2023-03-23T00:04:50;99317.75;;;10.37;100.00
11605;BME280;5858;43.076;25.626;2023-03-23T00:07:19;99283.19;;;10.13;100.00
11605;BME280;5858;43.076;25.626;2023-03-23T00:09:47;99246.06;;;9.81;100.00
11605;BME280;5858;43.076;25.626;2023-03-23T00:12:20;99232.88;;;9.79;100.00
11605;BME280;5858;43.076;25.626;2023-03-23T00:14:54;99289.94;;;10.09;100.00
11605;BME280;5858;43.076;25.626;2023-03-23T00:17:21;99313.03;;;10.25;100.00
11605;BME280;5858;43.076;25.626;2023-03-23T00:19:48;99278.94;;;10.04;100.00
11605;BME280;5858;43.076;25.626;2023-03-23T00:22:17;99309.81;;;10.29;100.00
11605;BME280;5858;43.076;25.626;2023-03-23T00:24:47;99313.22;;;10.23;100.00
11605;BME280;5858;43.076;25.626;2023-03-23T00:27:16;99322.47;;;10.13;100.00
11605;BME280;5858;43.076;25.626;2023-03-23T00:29:48;99237.28;;;9.72;100.00
11605;BME280;5858;43.076;25.626;2023-03-23T00:32:19;99291.13;;;10.06;100.00
11605;BME280;5858;43.076;25.626;2023-03-23T00:34:47;99313.53;;;10.05;100.00
11605;BME280;5858;43.076;25.626;2023-03-23T00:37:15;99303.84;;;10.04;100.00
11605;BME280;5858;43.076;25.626;2023-03-23T00:39:43;99290.94;;;10.08;100.00
11605;BME280;5858;43.076;25.626;2023-03-23T00:42:13;99304.88;;;10.18;100.00
11605;BME280;5858;43.076;25.626;2023-03-23T00:44:40;99297.94;;;10.09;100.00
11605;BME280;5858;43.076;25.626;2023-03-23T00:47:10;99296.66;;;10.05;100.00
11605;BME280;5858;43.076;25.626;2023-03-23T00:49:38;99298.41;;;10.13;100.00
11605;BME280;5858;43.076;25.626;2023-03-23T00:52:06;99142.53;;;9.22;100.00
11605;BME280;5858;43.076;25.626;2023-03-23T00:54:34;99297.69;;;10.19;100.00
11605;BME280;5858;43.076;25.626;2023-03-23T00:57:03;99281.25;;;10.07;100.00
11605;BME280;5858;43.076;25.626;2023-03-23T00:59:30;99293.16;;;10.04;100.00
11605;BME280;5858;43.076;25.626;2023-03-23T01:01:57;99273.81;;;10.17;100.00
11605;BME280;5858;43.076;25.626;2023-03-23T01:04:25;99295.25;;;10.32;100.00
11605;BME280;5858;43.076;25.626;2023-03-23T01:06:54;99289.34;;;10.22;100.00
11605;BME280;5858;43.076;25.626;2023-03-23T01:09:22;99297.56;;;10.35;100.00
11605;BME280;5858;43.076;25.626;2023-03-23T01:11:50;99298.28;;;10.29;100.00
11605;BME280;5858;43.076;25.626;2023-03-23T01:14:18;99307.50;;;10.26;100.00
11605;BME280;5858;43.076;25.626;2023-03-23T01:16:46;99296.69;;;10.20;100.00
11605;BME280;5858;43.076;25.626;2023-03-23T01:19:13;99291.50;;;10.18;100.00
11605;BME280;5858;43.076;25.626;2023-03-23T01:21:42;99281.13;;;10.23;100.00
11605;BME280;5858;43.076;25.626;2023-03-23T01:24:09;99298.03;;;10.38;100.00
11605;BME280;5858;43.076;25.626;2023-03-23T01:26:37;99228.09;;;9.89;100.00
11605;BME280;5858;43.076;25.626;2023-03-23T01:29:04;99270.19;;;10.10;100.00
11605;BME280;5858;43.076;25.626;2023-03-23T01:31:31;99291.66;;;10.39;100.00
11605;BME280;5858;43.076;25.626;2023-03-23T01:33:58;99266.63;;;10.18;100.00
11605;BME280;5858;43.076;25.626;2023-03-23T01:36:27;99280.75;;;10.26;100.00
11605;BME280;5858;43.076;25.626;2023-03-23T01:39:00;99294.06;;;10.34;100.00
11605;BME280;5858;43.076;25.626;2023-03-23T01:41:30;99264.25;;;10.23;100.00
11605;BME280;5858;43.076;25.626;2023-03-23T01:43:59;99289.75;;;10.48;100.00
11605;BME280;5858;43.076;25.626;2023-03-23T01:46:29;99297.41;;;10.51;100.00
11605;BME280;5858;43.076;25.626;2023-03-23T01:48:58;99293.00;;;10.58;100.00
11605;BME280;5858;43.076;25.626;2023-03-23T01:51:27;99302.41;;;10.54;100.00
11605;BME280;5858;43.076;25.626;2023-03-23T01:53:55;99271.38;;;10.30;100.00
11605;BME280;5858;43.076;25.626;2023-03-23T01:56:27;99249.09;;;10.15;100.00
11605;BME280;5858;43.076;25.626;2023-03-23T01:58:56;99300.88;;;10.37;100.00
11605;BME280;5858;43.076;25.626;2023-03-23T02:01:23;99299.03;;;10.37;100.00
11605;BME280;5858;43.076;25.626;2023-03-23T02:03:52;99308.06;;;10.36;100.00
11605;BME280;5858;43.076;25.626;2023-03-23T02:06:21;99297.56;;;10.35;100.00
11605;BME280;5858;43.076;25.626;2023-03-23T02:08:49;99247.06;;;10.02;100.00
11605;BME280;5858;43.076;25.626;2023-03-23T02:11:22;99304.94;;;10.33;100.00
11605;BME280;5858;43.076;25.626;2023-03-23T02:13:51;99304.88;;;10.41;100.00
11605;BME280;5858;43.076;25.626;2023-03-23T02:16:28;99305.16;;;10.46;100.00
11605;BME280;5858;43.076;25.626;2023-03-23T02:19:07;99296.84;;;10.41;100.00
11605;BME280;5858;43.076;25.626;2023-03-23T02:21:59;99294.88;;;10.35;100.00
11605;BME280;5858;43.076;25.626;2023-03-23T02:24:47;99315.09;;;10.37;100.00
11605;BME280;5858;43.076;25.626;2023-03-23T02:30:15;99314.06;;;10.38;100.00
11605;BME280;5858;43.076;25.626;2023-03-23T02:33:15;99308.16;;;10.28;100.00
11605;BME280;5858;43.076;25.626;2023-03-23T02:35:51;99311.75;;;10.21;100.00
11605;BME280;5858;43.076;25.626;2023-03-23T02:38:24;99316.25;;;10.20;100.00
11605;BME280;5858;43.076;25.626;2023-03-23T02:40:56;99315.44;;;10.34;100.00
11605;BME280;5858;43.076;25.626;2023-03-23T02:43:28;99319.25;;;10.40;100.00
11605;BME280;5858;43.076;25.626;2023-03-23T02:45:57;99318.25;;;10.18;100.00
11605;BME280;5858;43.076;25.626;2023-03-23T02:48:29;99323.59;;;10.18;100.00
11605;BME280;5858;43.076;25.626;2023-03-23T02:50:58;99327.00;;;10.12;100.00
11605;BME280;5858;43.076;25.626;2023-03-23T02:53:27;99327.47;;;10.16;100.00
11605;BME280;5858;43.076;25.626;2023-03-23T02:55:56;99320.16;;;10.09;100.00
11605;BME280;5858;43.076;25.626;2023-03-23T02:58:25;99301.06;;;9.98;100.00
11605;BME280;5858;43.076;25.626;2023-03-23T03:00:54;99335.81;;;10.21;100.00
11605;BME280;5858;43.076;25.626;2023-03-23T03:03:24;99332.59;;;10.02;100.00
11605;BME280;5858;43.076;25.626;2023-03-23T03:06:01;99303.25;;;9.94;100.00
11605;BME280;5858;43.076;25.626;2023-03-23T03:08:37;99340.84;;;10.16;100.00
11605;BME280;5858;43.076;25.626;2023-03-23T03:11:12;99339.31;;;10.21;100.00
11605;BME280;5858;43.076;25.626;2023-03-23T03:13:45;99338.88;;;10.32;100.00
11605;BME280;5858;43.076;25.626;2023-03-23T03:16:23;99341.19;;;10.13;100.00
11605;BME280;5858;43.076;25.626;2023-03-23T03:18:54;99260.63;;;9.55;100.00
11605;BME280;5858;43.076;25.626;2023-03-23T03:21:27;99319.69;;;9.83;100.00
11605;BME280;5858;43.076;25.626;2023-03-23T03:23:56;99350.53;;;9.94;100.00
11605;BME280;5858;43.076;25.626;2023-03-23T03:26:27;99347.97;;;9.77;100.00
11605;BME280;5858;43.076;25.626;2023-03-23T03:28:55;99345.69;;;9.89;100.00
11605;BME280;5858;43.076;25.626;2023-03-23T03:31:26;99349.84;;;9.92;100.00
11605;BME280;5858;43.076;25.626;2023-03-23T03:33:55;99319.03;;;9.58;100.00
11605;BME280;5858;43.076;25.626;2023-03-23T03:36:27;99373.84;;;9.77;100.00
11605;BME280;5858;43.076;25.626;2023-03-23T03:39:02;99367.72;;;9.68;100.00
11605;BME280;5858;43.076;25.626;2023-03-23T03:41:33;99380.19;;;9.76;100.00
11605;BME280;5858;43.076;25.626;2023-03-23T03:44:00;99373.94;;;9.61;100.00
11605;BME280;5858;43.076;25.626;2023-03-23T03:46:27;99396.88;;;9.78;100.00
11605;BME280;5858;43.076;25.626;2023-03-23T03:48:56;99368.81;;;9.82;100.00
11605;BME280;5858;43.076;25.626;2023-03-23T03:51:23;99348.72;;;9.63;100.00
11605;BME280;5858;43.076;25.626;2023-03-23T03:53:52;99383.00;;;9.83;100.00
11605;BME280;5858;43.076;25.626;2023-03-23T03:56:20;99384.34;;;9.78;100.00
11605;BME280;5858;43.076;25.626;2023-03-23T03:58:48;99359.88;;;9.67;100.00
11605;BME280;5858;43.076;25.626;2023-03-23T04:01:15;99384.84;;;9.82;100.00
11605;BME280;5858;43.076;25.626;2023-03-23T04:03:43;99393.22;;;9.79;100.00
11605;BME280;5858;43.076;25.626;2023-03-23T04:06:11;99374.97;;;9.60;100.00
11605;BME280;5858;43.076;25.626;2023-03-23T04:08:38;99399.50;;;9.86;100.00
11605;BME280;5858;43.076;25.626;2023-03-23T04:11:09;99382.69;;;9.77;100.00
11605;BME280;5858;43.076;25.626;2023-03-23T04:13:37;99393.38;;;9.77;100.00
11605;BME280;5858;43.076;25.626;2023-03-23T04:16:05;99388.94;;;9.70;100.00
11605;BME280;5858;43.076;25.626;2023-03-23T04:18:33;99394.38;;;9.76;100.00
11605;BME280;5858;43.076;25.626;2023-03-23T04:21:02;99326.66;;;9.38;100.00
11605;BME280;5858;43.076;25.626;2023-03-23T04:23:31;99357.88;;;9.38;100.00
11605;BME280;5858;43.076;25.626;2023-03-23T04:25:59;99406.44;;;9.72;100.00
11605;BME280;5858;43.076;25.626;2023-03-23T04:28:27;99339.28;;;9.13;100.00
11605;BME280;5858;43.076;25.626;2023-03-23T04:30:55;99408.59;;;9.46;100.00
11605;BME280;5858;43.076;25.626;2023-03-23T04:33:28;99397.50;;;9.57;100.00
11605;BME280;5858;43.076;25.626;2023-03-23T04:35:57;99402.03;;;9.57;100.00
11605;BME280;5858;43.076;25.626;2023-03-23T04:38:27;99388.88;;;9.47;100.00
11605;BME280;5858;43.076;25.626;2023-03-23T04:40:54;99412.19;;;9.61;100.00
11605;BME280;5858;43.076;25.626;2023-03-23T04:43:22;99415.75;;;9.45;100.00
11605;BME280;5858;43.076;25.626;2023-03-23T04:45:54;99413.72;;;9.56;100.00
11605;BME280;5858;43.076;25.626;2023-03-23T04:48:22;99378.56;;;9.36;100.00
11605;BME280;5858;43.076;25.626;2023-03-23T04:50:49;99349.50;;;9.10;100.00
11605;BME280;5858;43.076;25.626;2023-03-23T04:53:17;99418.09;;;9.49;100.00
11605;BME280;5858;43.076;25.626;2023-03-23T04:55:46;99424.28;;;9.41;100.00
11605;BME280;5858;43.076;25.626;2023-03-23T04:58:15;99424.44;;;9.48;100.00
11605;BME280;5858;43.076;25.626;2023-03-23T05:00:43;99426.94;;;9.41;100.00
11605;BME280;5858;43.076;25.626;2023-03-23T05:03:16;99440.19;;;9.26;100.00
11605;BME280;5858;43.076;25.626;2023-03-23T05:05:44;99425.53;;;9.22;100.00
11605;BME280;5858;43.076;25.626;2023-03-23T05:08:13;99434.66;;;9.36;100.00
11605;BME280;5858;43.076;25.626;2023-03-23T05:10:40;99446.53;;;9.25;100.00
11605;BME280;5858;43.076;25.626;2023-03-23T05:13:07;99411.50;;;9.20;100.00
11605;BME280;5858;43.076;25.626;2023-03-23T05:15:34;99434.38;;;9.23;100.00
11605;BME280;5858;43.076;25.626;2023-03-23T05:18:01;99416.72;;;9.13;100.00
11605;BME280;5858;43.076;25.626;2023-03-23T05:20:29;99408.66;;;9.22;100.00
11605;BME280;5858;43.076;25.626;2023-03-23T05:22:56;99432.66;;;9.30;100.00
11605;BME280;5858;43.076;25.626;2023-03-23T05:25:24;99431.50;;;9.32;100.00
11605;BME280;5858;43.076;25.626;2023-03-23T05:27:51;99434.50;;;9.29;100.00
11605;BME280;5858;43.076;25.626;2023-03-23T05:30:20;99446.03;;;9.30;100.00
11605;BME280;5858;43.076;25.626;2023-03-23T05:32:47;99413.88;;;9.15;100.00
11605;BME280;5858;43.076;25.626;2023-03-23T05:35:16;99445.88;;;9.23;100.00
11605;BME280;5858;43.076;25.626;2023-03-23T05:37:45;99414.06;;;9.05;100.00
11605;BME280;5858;43.076;25.626;2023-03-23T05:40:12;99444.66;;;9.34;100.00
11605;BME280;5858;43.076;25.626;2023-03-23T05:42:46;99442.66;;;9.36;100.00
11605;BME280;5858;43.076;25.626;2023-03-23T05:45:14;99370.72;;;8.87;100.00
11605;BME280;5858;43.076;25.626;2023-03-23T05:47:41;99454.47;;;9.41;100.00
11605;BME280;5858;43.076;25.626;2023-03-23T05:50:09;99447.97;;;9.44;100.00
11605;BME280;5858;43.076;25.626;2023-03-23T05:52:36;99461.66;;;9.49;100.00
11605;BME280;5858;43.076;25.626;2023-03-23T05:55:07;99463.47;;;9.57;100.00
11605;BME280;5858;43.076;25.626;2023-03-23T05:57:37;99480.28;;;9.65;100.00
11605;BME280;5858;43.076;25.626;2023-03-23T06:00:06;99437.97;;;9.46;100.00
11605;BME280;5858;43.076;25.626;2023-03-23T06:02:44;99452.25;;;9.61;100.00
11605;BME280;5858;43.076;25.626;2023-03-23T06:05:14;99337.72;;;8.88;100.00
11605;BME280;5858;43.076;25.626;2023-03-23T06:07:42;99430.84;;;9.69;100.00
11605;BME280;5858;43.076;25.626;2023-03-23T06:10:11;99461.38;;;10.06;100.00
11605;BME280;5858;43.076;25.626;2023-03-23T06:12:38;99419.69;;;9.89;100.00
11605;BME280;5858;43.076;25.626;2023-03-23T06:15:07;99461.47;;;10.21;100.00
11605;BME280;5858;43.076;25.626;2023-03-23T06:17:35;99471.88;;;10.38;100.00
11605;BME280;5858;43.076;25.626;2023-03-23T06:20:03;99470.00;;;10.47;100.00
11605;BME280;5858;43.076;25.626;2023-03-23T06:22:35;99461.25;;;10.53;100.00
11605;BME280;5858;43.076;25.626;2023-03-23T06:25:04;99476.16;;;10.70;100.00
11605;BME280;5858;43.076;25.626;2023-03-23T06:27:33;99490.19;;;10.95;100.00
11605;BME280;5858;43.076;25.626;2023-03-23T06:30:00;99488.63;;;10.78;100.00
11605;BME280;5858;43.076;25.626;2023-03-23T06:32:30;99490.00;;;10.74;100.00
11605;BME280;5858;43.076;25.626;2023-03-23T06:34:58;99484.59;;;10.82;100.00
11605;BME280;5858;43.076;25.626;2023-03-23T06:37:25;99450.41;;;10.69;100.00
11605;BME280;5858;43.076;25.626;2023-03-23T06:39:52;99427.78;;;10.57;100.00
11605;BME280;5858;43.076;25.626;2023-03-23T06:42:22;99473.22;;;11.03;100.00
11605;BME280;5858;43.076;25.626;2023-03-23T06:44:51;99503.66;;;11.40;100.00
11605;BME280;5858;43.076;25.626;2023-03-23T06:47:19;99489.03;;;11.42;100.00
11605;BME280;5858;43.076;25.626;2023-03-23T06:49:48;99499.28;;;11.68;100.00
11605;BME280;5858;43.076;25.626;2023-03-23T06:52:17;99488.09;;;11.64;99.87
11605;BME280;5858;43.076;25.626;2023-03-23T06:54:44;99502.63;;;11.70;99.11
11605;BME280;5858;43.076;25.626;2023-03-23T06:57:12;99511.22;;;11.80;97.30
11605;BME280;5858;43.076;25.626;2023-03-23T06:59:39;99507.00;;;11.86;98.29
11605;BME280;5858;43.076;25.626;2023-03-23T07:02:10;99488.00;;;11.73;96.75
11605;BME280;5858;43.076;25.626;2023-03-23T07:04:38;99511.03;;;11.52;96.79
11605;BME280;5858;43.076;25.626;2023-03-23T07:07:07;99513.06;;;11.35;96.51
11605;BME280;5858;43.076;25.626;2023-03-23T07:09:36;99493.72;;;11.25;98.16
11605;BME280;5858;43.076;25.626;2023-03-23T07:12:03;99481.25;;;11.18;97.79
11605;BME280;5858;43.076;25.626;2023-03-23T07:14:30;99516.59;;;11.51;98.67
11605;BME280;5858;43.076;25.626;2023-03-23T07:16:57;99511.66;;;11.69;98.23
11605;BME280;5858;43.076;25.626;2023-03-23T07:19:28;99517.50;;;11.58;96.02
11605;BME280;5858;43.076;25.626;2023-03-23T07:21:56;99387.47;;;10.59;96.85
11605;BME280;5858;43.076;25.626;2023-03-23T07:24:23;99522.97;;;11.50;97.77
11605;BME280;5858;43.076;25.626;2023-03-23T07:26:51;99522.28;;;11.77;97.63
11605;BME280;5858;43.076;25.626;2023-03-23T07:29:18;99487.09;;;11.80;98.11
11605;BME280;5858;43.076;25.626;2023-03-23T07:31:45;99443.00;;;11.68;97.56
11605;BME280;5858;43.076;25.626;2023-03-23T07:34:12;99510.22;;;11.96;94.69
11605;BME280;5858;43.076;25.626;2023-03-23T07:36:41;99473.59;;;11.59;95.13
11605;BME280;5858;43.076;25.626;2023-03-23T07:39:09;99540.66;;;11.88;95.50
11605;BME280;5858;43.076;25.626;2023-03-23T07:41:37;99537.97;;;11.88;95.39
11605;BME280;5858;43.076;25.626;2023-03-23T07:44:05;99537.75;;;12.05;95.37
11605;BME280;5858;43.076;25.626;2023-03-23T07:46:32;99544.09;;;12.18;94.93
11605;BME280;5858;43.076;25.626;2023-03-23T07:49:00;99531.63;;;12.11;93.60
11605;BME280;5858;43.076;25.626;2023-03-23T07:51:30;99532.78;;;12.02;92.81
11605;BME280;5858;43.076;25.626;2023-03-23T07:53:59;99527.81;;;11.84;92.95
11605;BME280;5858;43.076;25.626;2023-03-23T07:56:28;99469.25;;;11.58;94.36
11605;BME280;5858;43.076;25.626;2023-03-23T07:58:55;99562.44;;;12.15;93.20
11605;BME280;5858;43.076;25.626;2023-03-23T08:01:22;99510.31;;;11.88;93.29
11605;BME280;5858;43.076;25.626;2023-03-23T08:03:50;99553.19;;;12.17;94.31
11605;BME280;5858;43.076;25.626;2023-03-23T08:06:20;99552.53;;;12.30;93.94
11605;BME280;5858;43.076;25.626;2023-03-23T08:08:48;99554.09;;;12.24;93.98
11605;BME280;5858;43.076;25.626;2023-03-23T08:11:19;99546.94;;;11.95;92.75
11605;BME280;5858;43.076;25.626;2023-03-23T08:13:50;99539.41;;;12.06;93.41
11605;BME280;5858;43.076;25.626;2023-03-23T08:16:17;99505.88;;;11.95;93.67
11605;BME280;5858;43.076;25.626;2023-03-23T08:18:45;99566.47;;;12.25;92.32
11605;BME280;5858;43.076;25.626;2023-03-23T08:21:12;99546.41;;;12.21;92.63
11605;BME280;5858;43.076;25.626;2023-03-23T08:23:39;99567.94;;;12.43;92.73
11605;BME280;5858;43.076;25.626;2023-03-23T08:26:08;99570.69;;;12.49;92.01
11605;BME280;5858;43.076;25.626;2023-03-23T08:28:37;99567.91;;;12.57;91.41
11605;BME280;5858;43.076;25.626;2023-03-23T08:31:07;99539.06;;;12.45;90.69
11605;BME280;5858;43.076;25.626;2023-03-23T08:33:35;99591.53;;;12.83;90.17
11605;BME280;5858;43.076;25.626;2023-03-23T08:36:07;99535.09;;;12.62;89.71
11605;BME280;5858;43.076;25.626;2023-03-23T08:38:34;99562.09;;;12.75;87.80
11605;BME280;5858;43.076;25.626;2023-03-23T08:41:03;99554.19;;;12.31;88.96
11605;BME280;5858;43.076;25.626;2023-03-23T08:43:31;99592.19;;;12.49;90.27
11605;BME280;5858;43.076;25.626;2023-03-23T08:46:00;99588.13;;;12.39;89.87
11605;BME280;5858;43.076;25.626;2023-03-23T08:48:32;99563.09;;;12.53;89.13
11605;BME280;5858;43.076;25.626;2023-03-23T08:51:02;99511.91;;;12.18;89.04
11605;BME280;5858;43.076;25.626;2023-03-23T08:53:29;99564.66;;;12.83;89.22
11605;BME280;5858;43.076;25.626;2023-03-23T08:56:03;99500.03;;;12.64;87.18
11605;BME280;5858;43.076;25.626;2023-03-23T08:58:30;99496.19;;;12.73;86.18
11605;BME280;5858;43.076;25.626;2023-03-23T09:00:58;99560.59;;;13.15;84.40
11605;BME280;5858;43.076;25.626;2023-03-23T09:03:27;99534.94;;;13.28;83.27
11605;BME280;5858;43.076;25.626;2023-03-23T09:06:01;99513.56;;;12.98;83.75
11605;BME280;5858;43.076;25.626;2023-03-23T09:08:29;99538.03;;;13.10;84.76
11605;BME280;5858;43.076;25.626;2023-03-23T09:11:00;99572.94;;;13.52;84.18
11605;BME280;5858;43.076;25.626;2023-03-23T09:13:28;99572.63;;;13.69;83.50
11605;BME280;5858;43.076;25.626;2023-03-23T09:15:55;99569.06;;;13.96;82.99
11605;BME280;5858;43.076;25.626;2023-03-23T09:18:23;99577.25;;;14.16;81.07
11605;BME280;5858;43.076;25.626;2023-03-23T09:20:53;99565.63;;;14.09;83.21
11605;BME280;5858;43.076;25.626;2023-03-23T09:23:20;99565.69;;;14.22;80.85
11605;BME280;5858;43.076;25.626;2023-03-23T09:26:03;99431.19;;;13.33;80.51
11605;BME280;5858;43.076;25.626;2023-03-23T09:28:39;99559.44;;;14.15;80.01
11605;BME280;5858;43.076;25.626;2023-03-23T09:31:06;99573.22;;;14.40;79.24
11605;BME280;5858;43.076;25.626;2023-03-23T09:33:33;99563.94;;;14.49;78.77
11605;BME280;5858;43.076;25.626;2023-03-23T09:36:02;99576.63;;;14.62;78.25
11605;BME280;5858;43.076;25.626;2023-03-23T09:38:30;99513.41;;;14.51;77.45
11605;BME280;5858;43.076;25.626;2023-03-23T09:41:07;99456.63;;;14.33;75.56
11605;BME280;5858;43.076;25.626;2023-03-23T09:43:54;99500.16;;;14.49;73.04
11605;BME280;5858;43.076;25.626;2023-03-23T09:46:36;99430.84;;;13.97;73.74
11605;BME280;5858;43.076;25.626;2023-03-23T09:49:10;99516.53;;;14.48;73.30
11605;BME280;5858;43.076;25.626;2023-03-23T09:51:45;99483.81;;;14.58;72.96
11605;BME280;5858;43.076;25.626;2023-03-23T09:54:19;99553.50;;;15.47;73.56
11605;BME280;5858;43.076;25.626;2023-03-23T09:56:48;99472.44;;;14.95;72.58
11605;BME280;5858;43.076;25.626;2023-03-23T09:59:20;99552.88;;;15.38;70.61
11605;BME280;5858;43.076;25.626;2023-03-23T10:01:51;99535.88;;;15.04;68.37
11605;BME280;5858;43.076;25.626;2023-03-23T10:04:28;99554.34;;;15.21;68.40
11605;BME280;5858;43.076;25.626;2023-03-23T10:07:09;99535.28;;;15.16;69.67
11605;BME280;5858;43.076;25.626;2023-03-23T10:09:37;99553.28;;;15.55;68.39
11605;BME280;5858;43.076;25.626;2023-03-23T10:12:12;99538.78;;;15.36;67.77
11605;BME280;5858;43.076;25.626;2023-03-23T10:14:54;99545.84;;;15.24;68.69
11605;BME280;5858;43.076;25.626;2023-03-23T10:17:28;99529.06;;;15.28;67.13
11605;BME280;5858;43.076;25.626;2023-03-23T10:20:15;99500.44;;;15.14;66.20
11605;BME280;5858;43.076;25.626;2023-03-23T10:22:51;99546.25;;;15.73;68.58
11605;BME280;5858;43.076;25.626;2023-03-23T10:25:22;99446.44;;;15.60;67.14
11605;BME280;5858;43.076;25.626;2023-03-23T10:27:56;99497.88;;;16.30;64.77
11605;BME280;5858;43.076;25.626;2023-03-23T10:30:29;99499.53;;;16.31;60.43
11605;BME280;5858;43.076;25.626;2023-03-23T10:33:02;99474.38;;;16.30;63.76
11605;BME280;5858;43.076;25.626;2023-03-23T10:35:34;99535.53;;;16.94;62.83
11605;BME280;5858;43.076;25.626;2023-03-23T10:38:11;99506.22;;;16.60;62.49
11605;BME280;5858;43.076;25.626;2023-03-23T10:40:48;99440.25;;;16.11;59.49
11605;BME280;5858;43.076;25.626;2023-03-23T10:43:21;99509.75;;;16.67;60.57
11605;BME280;5858;43.076;25.626;2023-03-23T10:45:55;99526.69;;;16.81;61.32
11605;BME280;5858;43.076;25.626;2023-03-23T10:48:28;99524.75;;;16.88;60.69
11605;BME280;5858;43.076;25.626;2023-03-23T10:51:00;99524.53;;;16.89;61.69
11605;BME280;5858;43.076;25.626;2023-03-23T10:53:32;99440.34;;;16.54;60.40
11605;BME280;5858;43.076;25.626;2023-03-23T10:56:00;99515.91;;;17.30;63.41
11605;BME280;5858;43.076;25.626;2023-03-23T10:58:29;99477.03;;;17.25;58.59
11605;BME280;5858;43.076;25.626;2023-03-23T11:00:58;99514.03;;;17.49;58.54
11605;BME280;5858;43.076;25.626;2023-03-23T11:03:39;99489.44;;;17.33;56.92
11605;BME280;5858;43.076;25.626;2023-03-23T11:06:09;99502.09;;;17.39;59.15
11605;BME280;5858;43.076;25.626;2023-03-23T11:08:46;99446.59;;;16.86;59.76
11605;BME280;5858;43.076;25.626;2023-03-23T11:11:17;99494.09;;;16.76;59.80
11605;BME280;5858;43.076;25.626;2023-03-23T11:13:47;99492.63;;;16.35;61.34
11605;BME280;5858;43.076;25.626;2023-03-23T11:16:23;99481.88;;;15.84;64.41
11605;BME280;5858;43.076;25.626;2023-03-23T11:18:51;99474.38;;;15.86;66.42
11605;BME280;5858;43.076;25.626;2023-03-23T11:21:21;99462.09;;;15.19;65.70
11605;BME280;5858;43.076;25.626;2023-03-23T11:23:51;99469.34;;;15.25;65.77
11605;BME280;5858;43.076;25.626;2023-03-23T11:26:22;99482.78;;;15.11;65.42
11605;BME280;5858;43.076;25.626;2023-03-23T11:28:54;99450.66;;;14.51;67.07
11605;BME280;5858;43.076;25.626;2023-03-23T11:31:27;99476.38;;;14.79;67.91
11605;BME280;5858;43.076;25.626;2023-03-23T11:33:57;99477.22;;;14.87;68.26
11605;BME280;5858;43.076;25.626;2023-03-23T11:36:31;99471.41;;;15.03;68.17
11605;BME280;5858;43.076;25.626;2023-03-23T11:39:02;99475.34;;;15.20;68.02
11605;BME280;5858;43.076;25.626;2023-03-23T11:41:34;99469.94;;;15.07;66.62
11605;BME280;5858;43.076;25.626;2023-03-23T11:44:09;99463.72;;;15.33;67.49
11605;BME280;5858;43.076;25.626;2023-03-23T11:46:46;99442.91;;;15.53;67.44
11605;BME280;5858;43.076;25.626;2023-03-23T11:49:24;99465.03;;;15.88;67.21
11605;BME280;5858;43.076;25.626;2023-03-23T11:51:58;99397.34;;;15.90;65.97
11605;BME280;5858;43.076;25.626;2023-03-23T11:54:30;99469.84;;;16.24;61.77
11605;BME280;5858;43.076;25.626;2023-03-23T11:56:59;99466.91;;;16.32;61.02
11605;BME280;5858;43.076;25.626;2023-03-23T11:59:32;99459.06;;;16.24;61.09
11605;BME280;5858;43.076;25.626;2023-03-23T12:02:28;99461.47;;;15.94;59.77
11605;BME280;5858;43.076;25.626;2023-03-23T12:08:15;99440.06;;;15.35;63.10
11605;BME280;5858;43.076;25.626;2023-03-23T12:11:00;99422.47;;;15.12;63.95
11605;BME280;5858;43.076;25.626;2023-03-23T12:13:44;99406.50;;;15.11;61.75
11605;BME280;5858;43.076;25.626;2023-03-23T12:16:26;99430.75;;;15.11;63.20
11605;BME280;5858;43.076;25.626;2023-03-23T12:19:02;99452.56;;;15.16;62.21
11605;BME280;5858;43.076;25.626;2023-03-23T12:21:38;99415.44;;;15.05;63.32
11605;BME280;5858;43.076;25.626;2023-03-23T12:24:16;99450.84;;;15.41;63.46
11605;BME280;5858;43.076;25.626;2023-03-23T12:26:55;99460.13;;;15.52;61.43
11605;BME280;5858;43.076;25.626;2023-03-23T12:29:44;99453.72;;;15.66;61.93
11605;BME280;5858;43.076;25.626;2023-03-23T12:32:39;99440.19;;;15.73;62.23
11605;BME280;5858;43.076;25.626;2023-03-23T12:35:20;99437.84;;;15.90;62.75
11605;BME280;5858;43.076;25.626;2023-03-23T12:38:01;99472.66;;;15.98;60.41
11605;BME280;5858;43.076;25.626;2023-03-23T12:40:44;99435.44;;;16.13;61.26
11605;BME280;5858;43.076;25.626;2023-03-23T12:43:20;99467.59;;;16.53;61.34
11605;BME280;5858;43.076;25.626;2023-03-23T12:45:58;99461.38;;;16.52;58.20
11605;BME280;5858;43.076;25.626;2023-03-23T12:48:32;99442.38;;;15.96;59.27
11605;BME280;5858;43.076;25.626;2023-03-23T12:51:07;99450.53;;;15.83;59.02
11605;BME280;5858;43.076;25.626;2023-03-23T12:53:41;99393.22;;;15.23;60.39
11605;BME280;5858;43.076;25.626;2023-03-23T12:56:18;99322.41;;;14.89;62.68
11605;BME280;5858;43.076;25.626;2023-03-23T12:58:53;99452.09;;;16.03;62.01
11605;BME280;5858;43.076;25.626;2023-03-23T13:01:24;99460.75;;;16.19;61.97
11605;BME280;5858;43.076;25.626;2023-03-23T13:03:57;99456.53;;;16.29;59.75
11605;BME280;5858;43.076;25.626;2023-03-23T13:06:29;99387.78;;;15.94;57.59
11605;BME280;5858;43.076;25.626;2023-03-23T13:09:01;99453.19;;;16.34;57.38
11605;BME280;5858;43.076;25.626;2023-03-23T13:11:32;99461.63;;;16.06;57.04
11605;BME280;5858;43.076;25.626;2023-03-23T13:14:09;99432.28;;;15.78;58.60
11605;BME280;5858;43.076;25.626;2023-03-23T13:16:48;99451.56;;;15.82;60.55
11605;BME280;5858;43.076;25.626;2023-03-23T13:19:24;99354.66;;;15.22;61.25
11605;BME280;5858;43.076;25.626;2023-03-23T13:22:01;99398.72;;;15.54;61.78
11605;BME280;5858;43.076;25.626;2023-03-23T13:24:33;99440.75;;;15.88;61.49